sensor_id;sensor_type;location;lat;lon;timestamp;pressure;altitude;pressure_sealevel;temperature;humidity
48200;BME280;33990;44.602;10.976;2022-10-19T00:01:06;101814.09;;;22.41;59.93
48200;BME280;33990;44.602;10.976;2022-10-19T00:03:34;101814.09;;;22.41;59.91
48200;BME280;33990;44.602;10.976;2022-10-19T00:06:32;101806.84;;;22.41;59.91
48200;BME280;33990;44.602;10.976;2022-10-19T00:09:06;101814.09;;;22.41;59.85
48200;BME280;33990;44.602;10.976;2022-10-19T00:11:37;101814.09;;;22.41;59.77
48200;BME280;33990;44.602;10.976;2022-10-19T00:14:05;101809.66;;;22.40;59.87
48200;BME280;33990;44.602;10.976;2022-10-19T00:16:36;101819.47;;;22.41;59.87
48200;BME280;33990;44.602;10.976;2022-10-19T00:19:07;101815.94;;;22.40;59.92
48200;BME280;33990;44.602;10.976;2022-10-19T00:21:35;101819.47;;;22.41;59.77
48200;BME280;33990;44.602;10.976;2022-10-19T00:24:02;101815.94;;;22.40;59.76
48200;BME280;33990;44.602;10.976;2022-10-19T00:26:30;101816.88;;;22.39;59.68
48200;BME280;33990;44.602;10.976;2022-10-19T00:28:58;101817.75;;;22.40;59.62
48200;BME280;33990;44.602;10.976;2022-10-19T00:31:26;101821.44;;;22.39;59.78
48200;BME280;33990;44.602;10.976;2022-10-19T00:33:55;101817.75;;;22.40;59.57
48200;BME280;33990;44.602;10.976;2022-10-19T00:36:25;101816.03;;;22.39;59.62
48200;BME280;33990;44.602;10.976;2022-10-19T00:38:53;101812.34;;;22.40;59.59
48200;BME280;33990;44.602;10.976;2022-10-19T00:41:24;101808.94;;;22.38;59.71
48200;BME280;33990;44.602;10.976;2022-10-19T00:44:01;101806.09;;;22.39;59.59
48200;BME280;33990;44.602;10.976;2022-10-19T00:46:31;101794.47;;;22.39;59.57
48200;BME280;33990;44.602;10.976;2022-10-19T00:49:03;101786.50;;;22.37;59.48
48200;BME280;33990;44.602;10.976;2022-10-19T00:51:38;101790.06;;;22.38;59.46
48200;BME280;33990;44.602;10.976;2022-10-19T00:54:08;101790.06;;;22.38;59.39
48200;BME280;33990;44.602;10.976;2022-10-19T00:56:38;101792.75;;;22.38;59.44
48200;BME280;33990;44.602;10.976;2022-10-19T00:59:07;101803.53;;;22.38;59.49
48200;BME280;33990;44.602;10.976;2022-10-19T01:01:35;101799.13;;;22.37;59.37
48200;BME280;33990;44.602;10.976;2022-10-19T01:04:03;101792.75;;;22.38;59.53
48200;BME280;33990;44.602;10.976;2022-10-19T01:06:31;101787.34;;;22.38;59.33
48200;BME280;33990;44.602;10.976;2022-10-19T01:08:59;101778.53;;;22.36;59.29
48200;BME280;33990;44.602;10.976;2022-10-19T01:30:58;101761.47;;;22.35;59.27
48200;BME280;33990;44.602;10.976;2022-10-19T01:36:56;101757.94;;;22.35;59.05
48200;BME280;33990;44.602;10.976;2022-10-19T01:39:56;101770.41;;;22.36;59.08
48200;BME280;33990;44.602;10.976;2022-10-19T01:42:41;101758.78;;;22.35;59.15
48200;BME280;33990;44.602;10.976;2022-10-19T01:45:20;101762.34;;;22.36;59.01
48200;BME280;33990;44.602;10.976;2022-10-19T01:47:54;101756.09;;;22.35;58.97
48200;BME280;33990;44.602;10.976;2022-10-19T01:50:38;101754.38;;;22.34;58.96
48200;BME280;33990;44.602;10.976;2022-10-19T01:53:08;101755.38;;;22.33;59.05
48200;BME280;33990;44.602;10.976;2022-10-19T01:55:41;101750.84;;;22.34;59.00
48200;BME280;33990;44.602;10.976;2022-10-19T01:58:13;101750.84;;;22.34;58.89
48200;BME280;33990;44.602;10.976;2022-10-19T02:00:44;101751.81;;;22.33;58.98
48200;BME280;33990;44.602;10.976;2022-10-19T02:03:13;101751.69;;;22.34;58.99
48200;BME280;33990;44.602;10.976;2022-10-19T02:05:42;101750.84;;;22.34;58.96
48200;BME280;33990;44.602;10.976;2022-10-19T02:08:19;101744.59;;;22.33;58.95
48200;BME280;33990;44.602;10.976;2022-10-19T02:10:48;101749.13;;;22.33;58.82
48200;BME280;33990;44.602;10.976;2022-10-19T02:13:18;101740.19;;;22.32;58.90
48200;BME280;33990;44.602;10.976;2022-10-19T02:15:48;101732.19;;;22.31;58.90
48200;BME280;33990;44.602;10.976;2022-10-19T02:18:26;101732.94;;;22.33;59.00
48200;BME280;33990;44.602;10.976;2022-10-19T02:20:54;101736.59;;;22.32;58.95
48200;BME280;33990;44.602;10.976;2022-10-19T02:23:24;101728.50;;;22.32;58.95
48200;BME280;33990;44.602;10.976;2022-10-19T02:25:54;101723.09;;;22.32;58.86
48200;BME280;33990;44.602;10.976;2022-10-19T02:28:25;101725.81;;;22.32;58.93
48200;BME280;33990;44.602;10.976;2022-10-19T02:30:54;101728.66;;;22.30;59.07
48200;BME280;33990;44.602;10.976;2022-10-19T02:33:22;101727.78;;;22.30;58.83
48200;BME280;33990;44.602;10.976;2022-10-19T02:35:49;101726.81;;;22.31;58.75
48200;BME280;33990;44.602;10.976;2022-10-19T02:38:20;101721.41;;;22.31;58.67
48200;BME280;33990;44.602;10.976;2022-10-19T02:41:26;101721.41;;;22.31;58.74
48200;BME280;33990;44.602;10.976;2022-10-19T02:43:48;101722.25;;;22.31;58.85
48200;BME280;33990;44.602;10.976;2022-10-19T02:46:22;101727.66;;;22.31;58.74
48200;BME280;33990;44.602;10.976;2022-10-19T02:48:52;101715.16;;;22.30;58.85
48200;BME280;33990;44.602;10.976;2022-10-19T02:51:37;101719.69;;;22.30;58.73
48200;BME280;33990;44.602;10.976;2022-10-19T02:54:07;101714.44;;;22.28;58.78
48200;BME280;33990;44.602;10.976;2022-10-19T02:56:34;101712.59;;;22.29;58.67
48200;BME280;33990;44.602;10.976;2022-10-19T02:59:02;101712.59;;;22.29;58.57
48200;BME280;33990;44.602;10.976;2022-10-19T03:01:29;101710.75;;;22.29;58.67
48200;BME280;33990;44.602;10.976;2022-10-19T03:03:57;101714.31;;;22.30;58.75
48200;BME280;33990;44.602;10.976;2022-10-19T03:06:24;101712.59;;;22.29;58.42
48200;BME280;33990;44.602;10.976;2022-10-19T03:08:51;101718.09;;;22.27;58.56
48200;BME280;33990;44.602;10.976;2022-10-19T03:11:19;101713.44;;;22.29;58.68
48200;BME280;33990;44.602;10.976;2022-10-19T03:13:46;101718.97;;;22.28;58.43
48200;BME280;33990;44.602;10.976;2022-10-19T03:16:18;101716.25;;;22.28;58.50
48200;BME280;33990;44.602;10.976;2022-10-19T03:18:47;101718.97;;;22.28;58.65
48200;BME280;33990;44.602;10.976;2022-10-19T03:21:15;101732.44;;;22.28;58.71
48200;BME280;33990;44.602;10.976;2022-10-19T03:23:42;101728.91;;;22.27;58.65
48200;BME280;33990;44.602;10.976;2022-10-19T03:26:13;101734.28;;;22.27;58.64
48200;BME280;33990;44.602;10.976;2022-10-19T03:28:41;101724.50;;;22.26;58.68
48200;BME280;33990;44.602;10.976;2022-10-19T03:31:08;101719.09;;;22.26;58.54
48200;BME280;33990;44.602;10.976;2022-10-19T03:33:36;101726.19;;;22.27;58.57
48200;BME280;33990;44.602;10.976;2022-10-19T03:36:21;101722.78;;;22.25;58.71
48200;BME280;33990;44.602;10.976;2022-10-19T03:38:53;101727.19;;;22.26;58.65
48200;BME280;33990;44.602;10.976;2022-10-19T03:41:22;101722.66;;;22.27;58.59
48200;BME280;33990;44.602;10.976;2022-10-19T03:43:50;101713.84;;;22.25;58.62
48200;BME280;33990;44.602;10.976;2022-10-19T03:46:18;101716.53;;;22.25;58.61
48200;BME280;33990;44.602;10.976;2022-10-19T03:48:46;101720.94;;;22.26;58.77
48200;BME280;33990;44.602;10.976;2022-10-19T03:51:19;101718.25;;;22.26;58.68
48200;BME280;33990;44.602;10.976;2022-10-19T03:53:46;101722.78;;;22.25;58.62
48200;BME280;33990;44.602;10.976;2022-10-19T03:56:15;101720.94;;;22.26;58.68
48200;BME280;33990;44.602;10.976;2022-10-19T03:58:45;101714.81;;;22.24;58.76
48200;BME280;33990;44.602;10.976;2022-10-19T04:01:21;101714.81;;;22.24;58.78
48200;BME280;33990;44.602;10.976;2022-10-19T04:03:56;101724.75;;;22.23;58.62
48200;BME280;33990;44.602;10.976;2022-10-19T04:06:26;101714.81;;;22.24;58.59
48200;BME280;33990;44.602;10.976;2022-10-19T04:08:55;101726.34;;;22.26;58.79
48200;BME280;33990;44.602;10.976;2022-10-19T04:11:28;101727.34;;;22.25;58.73
48200;BME280;33990;44.602;10.976;2022-10-19T04:13:57;101720.19;;;22.24;58.53
48200;BME280;33990;44.602;10.976;2022-10-19T04:16:26;101719.25;;;22.25;58.68
48200;BME280;33990;44.602;10.976;2022-10-19T04:18:54;101723.91;;;22.23;58.55
48200;BME280;33990;44.602;10.976;2022-10-19T04:21:30;101724.75;;;22.23;58.53
48200;BME280;33990;44.602;10.976;2022-10-19T04:24:00;101713.09;;;22.23;58.45
48200;BME280;33990;44.602;10.976;2022-10-19T04:26:29;101722.91;;;22.24;58.55
48200;BME280;33990;44.602;10.976;2022-10-19T04:28:57;101724.88;;;22.21;58.45
48200;BME280;33990;44.602;10.976;2022-10-19T04:31:26;101721.19;;;22.23;58.46
48200;BME280;33990;44.602;10.976;2022-10-19T04:33:54;101727.44;;;22.23;58.48
48200;BME280;33990;44.602;10.976;2022-10-19T04:36:22;101719.50;;;22.21;58.43
48200;BME280;33990;44.602;10.976;2022-10-19T04:38:50;101712.41;;;22.20;58.53
48200;BME280;33990;44.602;10.976;2022-10-19T04:41:37;101715.94;;;22.21;58.45
48200;BME280;33990;44.602;10.976;2022-10-19T04:44:04;101710.66;;;22.19;58.33
48200;BME280;33990;44.602;10.976;2022-10-19T04:46:35;101713.09;;;22.23;58.43
48200;BME280;33990;44.602;10.976;2022-10-19T04:49:03;101708.81;;;22.20;58.33
48200;BME280;33990;44.602;10.976;2022-10-19T04:51:33;101715.94;;;22.21;58.48
48200;BME280;33990;44.602;10.976;2022-10-19T04:54:03;101713.34;;;22.19;58.27
48200;BME280;33990;44.602;10.976;2022-10-19T04:56:33;101706.13;;;22.20;58.18
48200;BME280;33990;44.602;10.976;2022-10-19T04:59:00;101713.25;;;22.21;58.31
48200;BME280;33990;44.602;10.976;2022-10-19T05:01:29;101715.94;;;22.21;58.42
48200;BME280;33990;44.602;10.976;2022-10-19T05:03:59;101710.81;;;22.18;58.34
48200;BME280;33990;44.602;10.976;2022-10-19T05:06:27;101714.34;;;22.18;58.29
48200;BME280;33990;44.602;10.976;2022-10-19T05:08:55;101709.81;;;22.19;58.42
48200;BME280;33990;44.602;10.976;2022-10-19T05:11:22;101706.13;;;22.20;58.45
48200;BME280;33990;44.602;10.976;2022-10-19T05:13:52;101708.81;;;22.20;58.26
48200;BME280;33990;44.602;10.976;2022-10-19T05:16:21;101712.50;;;22.19;58.38
48200;BME280;33990;44.602;10.976;2022-10-19T05:18:50;101714.34;;;22.18;58.40
48200;BME280;33990;44.602;10.976;2022-10-19T05:21:18;101708.09;;;22.18;58.30
48200;BME280;33990;44.602;10.976;2022-10-19T05:23:50;101705.41;;;22.18;58.38
48200;BME280;33990;44.602;10.976;2022-10-19T05:26:20;101703.56;;;22.18;58.30
48200;BME280;33990;44.602;10.976;2022-10-19T05:28:56;101709.09;;;22.17;58.27
48200;BME280;33990;44.602;10.976;2022-10-19T05:31:27;101704.56;;;22.17;58.04
48200;BME280;33990;44.602;10.976;2022-10-19T05:33:55;101701.84;;;22.17;58.16
48200;BME280;33990;44.602;10.976;2022-10-19T05:36:29;101709.94;;;22.17;58.21
48200;BME280;33990;44.602;10.976;2022-10-19T05:39:03;101710.94;;;22.16;58.07
48200;BME280;33990;44.602;10.976;2022-10-19T05:41:32;101713.63;;;22.16;58.12
48200;BME280;33990;44.602;10.976;2022-10-19T05:44:00;101718.03;;;22.17;58.09
48200;BME280;33990;44.602;10.976;2022-10-19T05:46:29;101711.78;;;22.17;58.11
48200;BME280;33990;44.602;10.976;2022-10-19T05:48:57;101712.66;;;22.17;58.09
48200;BME280;33990;44.602;10.976;2022-10-19T05:51:27;101714.59;;;22.15;58.15
48200;BME280;33990;44.602;10.976;2022-10-19T05:53:55;101716.34;;;22.16;58.15
48200;BME280;33990;44.602;10.976;2022-10-19T05:56:25;101715.44;;;22.16;57.99
48200;BME280;33990;44.602;10.976;2022-10-19T05:58:54;101706.66;;;22.14;57.89
48200;BME280;33990;44.602;10.976;2022-10-19T06:01:22;101712.75;;;22.16;57.97
48200;BME280;33990;44.602;10.976;2022-10-19T06:03:52;101712.66;;;22.17;58.07
48200;BME280;33990;44.602;10.976;2022-10-19T06:06:20;101713.63;;;22.16;57.89
48200;BME280;33990;44.602;10.976;2022-10-19T06:08:48;101706.50;;;22.15;58.05
48200;BME280;33990;44.602;10.976;2022-10-19T06:11:21;101719.88;;;22.17;57.84
48200;BME280;33990;44.602;10.976;2022-10-19T06:13:52;101714.59;;;22.15;57.97
48200;BME280;33990;44.602;10.976;2022-10-19T06:16:20;101717.28;;;22.15;57.98
48200;BME280;33990;44.602;10.976;2022-10-19T06:18:47;101719.03;;;22.16;57.98
48200;BME280;33990;44.602;10.976;2022-10-19T06:21:17;101714.59;;;22.15;57.97
48200;BME280;33990;44.602;10.976;2022-10-19T06:23:51;101715.44;;;22.16;57.97
48200;BME280;33990;44.602;10.976;2022-10-19T06:26:19;101717.28;;;22.15;58.07
48200;BME280;33990;44.602;10.976;2022-10-19T06:28:48;101721.84;;;22.15;56.69
48200;BME280;33990;44.602;10.976;2022-10-19T06:31:16;101724.03;;;22.10;54.94
48200;BME280;33990;44.602;10.976;2022-10-19T06:33:44;101733.50;;;22.04;54.78
48200;BME280;33990;44.602;10.976;2022-10-19T06:36:18;101741.25;;;21.97;54.71
48200;BME280;33990;44.602;10.976;2022-10-19T06:38:46;101747.03;;;21.93;54.52
48200;BME280;33990;44.602;10.976;2022-10-19T06:41:13;101750.09;;;21.88;54.78
48200;BME280;33990;44.602;10.976;2022-10-19T06:43:41;101750.22;;;21.87;54.75
48200;BME280;33990;44.602;10.976;2022-10-19T06:46:13;101752.44;;;21.82;54.88
48200;BME280;33990;44.602;10.976;2022-10-19T06:48:43;101749.97;;;21.79;54.69
48200;BME280;33990;44.602;10.976;2022-10-19T06:51:10;101750.97;;;21.78;54.96
48200;BME280;33990;44.602;10.976;2022-10-19T06:53:39;101748.50;;;21.75;54.77
48200;BME280;33990;44.602;10.976;2022-10-19T06:56:07;101753.19;;;21.72;55.00
48200;BME280;33990;44.602;10.976;2022-10-19T06:58:38;101755.13;;;21.70;55.39
48200;BME280;33990;44.602;10.976;2022-10-19T07:01:06;101766.78;;;21.71;55.65
48200;BME280;33990;44.602;10.976;2022-10-19T07:03:35;101760.53;;;21.70;56.05
48200;BME280;33990;44.602;10.976;2022-10-19T07:06:04;101765.81;;;21.72;55.99
48200;BME280;33990;44.602;10.976;2022-10-19T07:08:33;101764.06;;;21.71;55.68
48200;BME280;33990;44.602;10.976;2022-10-19T07:11:04;101771.06;;;21.73;55.60
48200;BME280;33990;44.602;10.976;2022-10-19T07:13:32;101765.91;;;21.70;55.35
48200;BME280;33990;44.602;10.976;2022-10-19T07:16:04;101763.38;;;21.69;55.47
48200;BME280;33990;44.602;10.976;2022-10-19T07:18:33;101765.91;;;21.70;55.70
48200;BME280;33990;44.602;10.976;2022-10-19T07:21:03;101765.91;;;21.70;55.81
48200;BME280;33990;44.602;10.976;2022-10-19T07:23:33;101766.66;;;21.72;55.83
48200;BME280;33990;44.602;10.976;2022-10-19T07:26:11;101764.06;;;21.71;55.90
48200;BME280;33990;44.602;10.976;2022-10-19T07:28:41;101773.75;;;21.73;55.92
48200;BME280;33990;44.602;10.976;2022-10-19T07:31:11;101766.44;;;21.76;56.04
48200;BME280;33990;44.602;10.976;2022-10-19T07:33:39;101766.28;;;21.77;55.89
48200;BME280;33990;44.602;10.976;2022-10-19T07:36:08;101775.00;;;21.81;55.96
48200;BME280;33990;44.602;10.976;2022-10-19T07:38:36;101770.31;;;21.83;56.28
48200;BME280;33990;44.602;10.976;2022-10-19T07:41:10;101772.75;;;21.86;56.35
48200;BME280;33990;44.602;10.976;2022-10-19T07:43:39;101771.78;;;21.87;56.28
48200;BME280;33990;44.602;10.976;2022-10-19T07:46:11;101771.78;;;21.87;56.37
48200;BME280;33990;44.602;10.976;2022-10-19T07:48:39;101773.38;;;21.89;56.13
48200;BME280;33990;44.602;10.976;2022-10-19T07:51:08;101779.47;;;21.91;56.13
48200;BME280;33990;44.602;10.976;2022-10-19T07:53:36;101767.00;;;21.90;56.21
48200;BME280;33990;44.602;10.976;2022-10-19T07:56:10;101774.09;;;21.91;56.30
48200;BME280;33990;44.602;10.976;2022-10-19T07:58:39;101782.06;;;21.93;56.36
48200;BME280;33990;44.602;10.976;2022-10-19T08:01:24;101780.09;;;21.95;56.35
48200;BME280;33990;44.602;10.976;2022-10-19T08:03:53;101771.03;;;21.96;56.57
48200;BME280;33990;44.602;10.976;2022-10-19T08:06:41;101772.75;;;21.97;56.53
48200;BME280;33990;44.602;10.976;2022-10-19T08:09:08;101770.03;;;21.97;56.66
48200;BME280;33990;44.602;10.976;2022-10-19T08:11:48;101777.75;;;22.02;56.94
48200;BME280;33990;44.602;10.976;2022-10-19T08:14:16;101772.38;;;22.02;56.94
48200;BME280;33990;44.602;10.976;2022-10-19T08:16:43;101774.81;;;22.05;57.04
48200;BME280;33990;44.602;10.976;2022-10-19T08:19:12;101772.97;;;22.05;56.98
48200;BME280;33990;44.602;10.976;2022-10-19T08:21:43;101766.59;;;22.06;57.09
48200;BME280;33990;44.602;10.976;2022-10-19T08:24:13;101770.03;;;22.08;57.10
48200;BME280;33990;44.602;10.976;2022-10-19T08:26:41;101769.03;;;22.09;56.73
48200;BME280;33990;44.602;10.976;2022-10-19T08:29:17;101776.97;;;22.11;56.88
48200;BME280;33990;44.602;10.976;2022-10-19T08:31:46;101762.66;;;22.10;56.77
48200;BME280;33990;44.602;10.976;2022-10-19T08:34:15;101767.06;;;22.11;56.91
48200;BME280;33990;44.602;10.976;2022-10-19T08:36:42;101767.91;;;22.12;56.80
48200;BME280;33990;44.602;10.976;2022-10-19T08:39:11;101765.00;;;22.15;56.88
48200;BME280;33990;44.602;10.976;2022-10-19T08:50:04;101752.25;;;22.17;57.47
48200;BME280;33990;44.602;10.976;2022-10-19T08:52:40;101754.66;;;22.20;57.60
48200;BME280;33990;44.602;10.976;2022-10-19T08:55:12;101757.50;;;22.18;57.32
48200;BME280;33990;44.602;10.976;2022-10-19T09:08:39;101756.25;;;22.23;57.78
48200;BME280;33990;44.602;10.976;2022-10-19T09:11:08;101757.97;;;22.24;58.01
48200;BME280;33990;44.602;10.976;2022-10-19T09:13:43;101758.84;;;22.24;57.88
48200;BME280;33990;44.602;10.976;2022-10-19T09:16:31;101760.56;;;22.25;57.80
48200;BME280;33990;44.602;10.976;2022-10-19T09:19:02;101764.81;;;22.28;57.86
48200;BME280;33990;44.602;10.976;2022-10-19T09:21:49;101755.03;;;22.27;57.93
48200;BME280;33990;44.602;10.976;2022-10-19T09:26:58;101755.75;;;22.29;58.00
48200;BME280;33990;44.602;10.976;2022-10-19T09:29:49;101750.38;;;22.29;58.18
48200;BME280;33990;44.602;10.976;2022-10-19T09:32:43;101751.09;;;22.31;58.09
48200;BME280;33990;44.602;10.976;2022-10-19T09:35:31;101741.28;;;22.30;58.09
48200;BME280;33990;44.602;10.976;2022-10-19T09:38:03;101742.00;;;22.32;58.23
48200;BME280;33990;44.602;10.976;2022-10-19T09:40:33;101741.88;;;22.33;58.18
48200;BME280;33990;44.602;10.976;2022-10-19T09:43:04;101740.19;;;22.32;58.03
48200;BME280;33990;44.602;10.976;2022-10-19T09:45:56;101739.19;;;22.33;58.11
48200;BME280;33990;44.602;10.976;2022-10-19T09:50:57;101745.28;;;22.35;58.17
48200;BME280;33990;44.602;10.976;2022-10-19T09:53:25;101740.75;;;22.36;58.23
48200;BME280;33990;44.602;10.976;2022-10-19T09:56:04;101735.34;;;22.36;58.24
48200;BME280;33990;44.602;10.976;2022-10-19T09:58:33;101733.53;;;22.36;58.24
48200;BME280;33990;44.602;10.976;2022-10-19T10:01:01;101735.34;;;22.36;58.35
48200;BME280;33990;44.602;10.976;2022-10-19T10:03:34;101736.94;;;22.38;58.35
48200;BME280;33990;44.602;10.976;2022-10-19T10:06:07;101735.25;;;22.37;58.38
48200;BME280;33990;44.602;10.976;2022-10-19T10:08:53;101729.84;;;22.37;58.49
48200;BME280;33990;44.602;10.976;2022-10-19T10:11:35;101735.09;;;22.39;58.49
48200;BME280;33990;44.602;10.976;2022-10-19T10:14:20;101729.72;;;22.39;58.62
48200;BME280;33990;44.602;10.976;2022-10-19T10:16:54;101718.91;;;22.39;58.59
48200;BME280;33990;44.602;10.976;2022-10-19T10:19:26;101727.75;;;22.41;58.48
48200;BME280;33990;44.602;10.976;2022-10-19T10:21:56;101733.16;;;22.41;58.63
48200;BME280;33990;44.602;10.976;2022-10-19T10:24:26;101719.66;;;22.41;58.46
48200;BME280;33990;44.602;10.976;2022-10-19T10:26:59;101718.66;;;22.42;58.63
48200;BME280;33990;44.602;10.976;2022-10-19T10:29:35;101715.97;;;22.42;58.53
48200;BME280;33990;44.602;10.976;2022-10-19T10:32:06;101710.56;;;22.42;58.60
48200;BME280;33990;44.602;10.976;2022-10-19T10:37:21;101711.41;;;22.42;58.49
48200;BME280;33990;44.602;10.976;2022-10-19T10:39:51;101708.72;;;22.42;58.42
48200;BME280;33990;44.602;10.976;2022-10-19T10:42:27;101714.84;;;22.44;58.48
48200;BME280;33990;44.602;10.976;2022-10-19T10:44:57;101709.56;;;22.43;58.58
48200;BME280;33990;44.602;10.976;2022-10-19T10:47:26;101704.06;;;22.44;58.60
48200;BME280;33990;44.602;10.976;2022-10-19T10:50:02;101696.06;;;22.43;58.65
48200;BME280;33990;44.602;10.976;2022-10-19T10:52:32;101687.00;;;22.44;58.87
48200;BME280;33990;44.602;10.976;2022-10-19T10:55:16;101682.47;;;22.44;58.54
48200;BME280;33990;44.602;10.976;2022-10-19T10:57:47;101678.78;;;22.45;58.53
48200;BME280;33990;44.602;10.976;2022-10-19T11:00:19;101679.63;;;22.46;58.67
48200;BME280;33990;44.602;10.976;2022-10-19T11:05:40;101677.78;;;22.46;58.68
48200;BME280;33990;44.602;10.976;2022-10-19T11:08:26;101672.41;;;22.46;58.55
48200;BME280;33990;44.602;10.976;2022-10-19T11:11:05;101666.16;;;22.46;58.55
48200;BME280;33990;44.602;10.976;2022-10-19T11:17:40;101665.88;;;22.49;58.68
48200;BME280;33990;44.602;10.976;2022-10-19T11:20:14;101660.59;;;22.48;58.46
48200;BME280;33990;44.602;10.976;2022-10-19T11:22:51;101660.50;;;22.49;58.55
48200;BME280;33990;44.602;10.976;2022-10-19T11:25:31;101653.34;;;22.48;58.71
48200;BME280;33990;44.602;10.976;2022-10-19T11:31:47;101645.25;;;22.48;58.49
48200;BME280;33990;44.602;10.976;2022-10-19T11:43:04;101634.63;;;22.46;58.78
48200;BME280;33990;44.602;10.976;2022-10-19T11:45:40;101636.31;;;22.48;58.55
48200;BME280;33990;44.602;10.976;2022-10-19T11:48:15;101630.06;;;22.47;58.53
48200;BME280;33990;44.602;10.976;2022-10-19T11:53:47;101609.34;;;22.48;58.80
48200;BME280;33990;44.602;10.976;2022-10-19T12:00:13;101605.53;;;22.50;58.68
48200;BME280;33990;44.602;10.976;2022-10-19T12:14:23;101583.78;;;22.52;58.91
48200;BME280;33990;44.602;10.976;2022-10-19T12:16:57;101595.44;;;22.52;59.00
48200;BME280;33990;44.602;10.976;2022-10-19T12:19:29;101590.03;;;22.52;58.95
48200;BME280;33990;44.602;10.976;2022-10-19T12:22:01;101590.94;;;22.53;58.81
48200;BME280;33990;44.602;10.976;2022-10-19T12:24:32;101583.69;;;22.53;59.02
48200;BME280;33990;44.602;10.976;2022-10-19T12:27:00;101572.03;;;22.53;58.86
48200;BME280;33990;44.602;10.976;2022-10-19T12:29:40;101570.19;;;22.53;58.83
48200;BME280;33990;44.602;10.976;2022-10-19T12:32:13;101572.75;;;22.55;58.78
48200;BME280;33990;44.602;10.976;2022-10-19T12:35:03;101568.44;;;22.52;58.77
48200;BME280;33990;44.602;10.976;2022-10-19T12:37:51;101562.78;;;22.55;58.80
48200;BME280;33990;44.602;10.976;2022-10-19T12:40:36;101561.94;;;22.55;58.87
48200;BME280;33990;44.602;10.976;2022-10-19T12:43:15;101555.69;;;22.54;58.65
48200;BME280;33990;44.602;10.976;2022-10-19T12:48:34;101559.25;;;22.55;58.82
48200;BME280;33990;44.602;10.976;2022-10-19T12:51:05;101545.75;;;22.55;58.72
48200;BME280;33990;44.602;10.976;2022-10-19T13:01:05;101533.97;;;22.56;58.52
48200;BME280;33990;44.602;10.976;2022-10-19T13:03:36;101541.09;;;22.57;58.68
48200;BME280;33990;44.602;10.976;2022-10-19T13:08:56;101523.06;;;22.57;58.64
48200;BME280;33990;44.602;10.976;2022-10-19T13:11:24;101518.50;;;22.58;58.70
48200;BME280;33990;44.602;10.976;2022-10-19T13:19:25;101514.97;;;22.57;58.52
48200;BME280;33990;44.602;10.976;2022-10-19T13:22:21;101512.09;;;22.59;58.62
48200;BME280;33990;44.602;10.976;2022-10-19T13:27:45;101505.84;;;22.58;58.20
48200;BME280;33990;44.602;10.976;2022-10-19T13:44:18;101496.75;;;22.59;58.29
48200;BME280;33990;44.602;10.976;2022-10-19T13:49:46;101495.78;;;22.60;58.16
48200;BME280;33990;44.602;10.976;2022-10-19T13:55:21;101475.19;;;22.59;58.30
48200;BME280;33990;44.602;10.976;2022-10-19T14:09:18;101476.88;;;22.60;58.45
48200;BME280;33990;44.602;10.976;2022-10-19T14:11:52;101475.06;;;22.61;58.23
48200;BME280;33990;44.602;10.976;2022-10-19T14:14:22;101470.50;;;22.61;58.28
48200;BME280;33990;44.602;10.976;2022-10-19T14:16:59;101464.25;;;22.61;58.35
48200;BME280;33990;44.602;10.976;2022-10-19T14:19:42;101471.38;;;22.62;58.29
48200;BME280;33990;44.602;10.976;2022-10-19T14:26:15;101459.72;;;22.61;58.35
48200;BME280;33990;44.602;10.976;2022-10-19T14:28:50;101460.56;;;22.62;58.42
48200;BME280;33990;44.602;10.976;2022-10-19T14:31:24;101457.03;;;22.61;58.30
48200;BME280;33990;44.602;10.976;2022-10-19T14:33:55;101450.63;;;22.62;58.45
48200;BME280;33990;44.602;10.976;2022-10-19T14:36:29;101454.16;;;22.63;58.65
48200;BME280;33990;44.602;10.976;2022-10-19T14:38:59;101444.38;;;22.62;58.45
48200;BME280;33990;44.602;10.976;2022-10-19T14:43:58;101446.22;;;22.61;58.26
48200;BME280;33990;44.602;10.976;2022-10-19T14:46:31;101445.22;;;22.62;58.31
48200;BME280;33990;44.602;10.976;2022-10-19T14:49:01;101451.47;;;22.63;58.30
48200;BME280;33990;44.602;10.976;2022-10-19T14:51:42;101445.22;;;22.62;58.46
48200;BME280;33990;44.602;10.976;2022-10-19T14:54:23;101447.78;;;22.64;58.19
48200;BME280;33990;44.602;10.976;2022-10-19T14:57:02;101448.63;;;22.64;58.01
48200;BME280;33990;44.602;10.976;2022-10-19T14:59:38;101437.97;;;22.63;58.30
48200;BME280;33990;44.602;10.976;2022-10-19T15:02:23;101445.06;;;22.64;58.28
48200;BME280;33990;44.602;10.976;2022-10-19T15:04:53;101444.09;;;22.65;58.20
48200;BME280;33990;44.602;10.976;2022-10-19T15:07:34;101434.00;;;22.67;58.46
48200;BME280;33990;44.602;10.976;2022-10-19T15:10:07;101435.84;;;22.66;58.28
48200;BME280;33990;44.602;10.976;2022-10-19T15:12:42;101429.59;;;22.66;58.20
48200;BME280;33990;44.602;10.976;2022-10-19T15:15:27;101430.47;;;22.66;58.00
48200;BME280;33990;44.602;10.976;2022-10-19T15:18:02;101437.56;;;22.67;57.94
48200;BME280;33990;44.602;10.976;2022-10-19T15:20:34;101434.00;;;22.67;57.82
48200;BME280;33990;44.602;10.976;2022-10-19T15:26:10;101442.09;;;22.67;58.22
48200;BME280;33990;44.602;10.976;2022-10-19T15:28:43;101439.41;;;22.67;58.17
48200;BME280;33990;44.602;10.976;2022-10-19T15:31:15;101434.00;;;22.67;58.21
48200;BME280;33990;44.602;10.976;2022-10-19T15:33:49;101437.56;;;22.67;58.24
48200;BME280;33990;44.602;10.976;2022-10-19T15:36:19;101436.72;;;22.67;58.15